createdAt,value
2023-05-05T00:01:03.624Z,101853.80
2023-05-05T00:03:33.567Z,101856.00
2023-05-05T00:06:01.496Z,101858.60
2023-05-05T00:08:29.363Z,101870.60
2023-05-05T00:10:57.757Z,101867.80
2023-05-05T00:13:25.792Z,101871.20
2023-05-05T00:15:54.132Z,101870.20
2023-05-05T00:18:22.299Z,101878.60
2023-05-05T00:20:50.719Z,101873.40
2023-05-05T00:23:19.757Z,101877.20
2023-05-05T00:25:47.696Z,101879.00
2023-05-05T00:28:15.495Z,101881.60
2023-05-05T00:30:43.477Z,101887.40
2023-05-05T00:33:11.480Z,101883.60
2023-05-05T00:35:39.306Z,101879.00
2023-05-05T00:38:07.527Z,101880.40
2023-05-05T00:40:36.105Z,101885.00
2023-05-05T00:43:04.009Z,101889.20
2023-05-05T00:45:31.876Z,101886.20
2023-05-05T00:48:01.941Z,101884.60
2023-05-05T00:50:31.516Z,101887.40
2023-05-05T00:53:03.446Z,101887.40
2023-05-05T00:55:33.109Z,101887.60
2023-05-05T00:58:04.294Z,101888.40
2023-05-05T01:00:32.404Z,101886.20
2023-05-05T01:03:00.685Z,101881.40
2023-05-05T01:05:44.947Z,101883.80
2023-05-05T01:08:27.487Z,101876.80
2023-05-05T01:11:26.340Z,101881.40
2023-05-05T01:14:20.839Z,101886.00
2023-05-05T01:17:04.981Z,101879.60
2023-05-05T01:19:54.702Z,101877.80
2023-05-05T01:22:32.339Z,101880.80
2023-05-05T01:25:12.338Z,101888.60
2023-05-05T01:28:29.299Z,101893.60
2023-05-05T01:31:17.778Z,101891.00
2023-05-05T01:33:55.269Z,101884.20
2023-05-05T01:36:36.294Z,101882.20
2023-05-05T01:39:08.470Z,101886.00
2023-05-05T01:41:47.374Z,101885.60
2023-05-05T01:44:20.034Z,101882.20
2023-05-05T01:46:52.055Z,101880.80
2023-05-05T01:49:20.678Z,101884.20
2023-05-05T01:51:50.046Z,101876.40
2023-05-05T01:54:19.365Z,101879.40
2023-05-05T01:56:50.749Z,101879.80
2023-05-05T01:59:21.857Z,101885.60
2023-05-05T02:01:52.423Z,101882.80
2023-05-05T02:04:22.994Z,101886.00
2023-05-05T02:06:53.499Z,101881.60
2023-05-05T02:09:25.433Z,101874.60
2023-05-05T02:11:55.524Z,101873.80
2023-05-05T02:14:26.930Z,101875.80
2023-05-05T02:16:58.175Z,101876.20
2023-05-05T02:19:34.482Z,101878.00
2023-05-05T02:22:03.263Z,101873.80
2023-05-05T02:24:31.587Z,101882.00
2023-05-05T02:27:03.908Z,101874.40
2023-05-05T02:29:39.252Z,101875.80
2023-05-05T02:32:23.836Z,101882.20
2023-05-05T02:34:54.490Z,101876.00
2023-05-05T02:37:28.880Z,101875.60
2023-05-05T02:40:05.030Z,101878.40
2023-05-05T02:42:37.392Z,101879.00
2023-05-05T02:45:12.534Z,101883.40
2023-05-05T02:47:40.467Z,101885.00
2023-05-05T02:50:09.818Z,101882.20
2023-05-05T02:52:38.341Z,101881.80
2023-05-05T02:55:07.379Z,101877.40
2023-05-05T02:57:48.655Z,101880.60
2023-05-05T03:00:38.375Z,101877.40
2023-05-05T03:03:22.390Z,101875.80
2023-05-05T03:06:13.912Z,101881.60
2023-05-05T03:09:11.226Z,101878.60
2023-05-05T03:11:47.117Z,101881.60
2023-05-05T03:14:19.286Z,101883.80
2023-05-05T03:16:49.476Z,101882.40
2023-05-05T03:19:20.470Z,101890.00
2023-05-05T03:21:48.690Z,101888.40
2023-05-05T03:24:19.505Z,101889.80
2023-05-05T03:26:49.546Z,101892.40
2023-05-05T03:29:17.688Z,101896.00
2023-05-05T03:31:45.915Z,101897.80
2023-05-05T03:34:13.760Z,101896.40
2023-05-05T03:36:41.670Z,101903.80
2023-05-05T03:39:09.473Z,101892.00
2023-05-05T03:41:37.333Z,101905.40
2023-05-05T03:44:05.256Z,101901.20
2023-05-05T03:46:33.031Z,101905.80
2023-05-05T03:49:03.441Z,101906.20
2023-05-05T03:51:31.455Z,101908.00
2023-05-05T03:53:59.196Z,101902.80
2023-05-05T03:56:27.137Z,101914.00
2023-05-05T03:58:54.992Z,101913.60
2023-05-05T04:01:23.664Z,101918.00
2023-05-05T04:03:52.040Z,101906.20
2023-05-05T04:06:20.145Z,101907.80
2023-05-05T04:08:48.040Z,101903.20
2023-05-05T04:11:16.225Z,101911.40
2023-05-05T04:13:44.096Z,101912.80
2023-05-05T04:16:12.214Z,101912.40
2023-05-05T04:18:40.002Z,101906.80
2023-05-05T04:21:07.863Z,101901.80
2023-05-05T04:23:35.815Z,101916.00
2023-05-05T04:26:03.680Z,101906.80
2023-05-05T04:28:31.481Z,101902.60
2023-05-05T04:31:01.245Z,101916.80
2023-05-05T04:33:29.156Z,101914.80
2023-05-05T04:35:57.023Z,101914.60
2023-05-05T04:38:24.991Z,101928.60
2023-05-05T04:40:52.835Z,101926.60
2023-05-05T04:43:21.090Z,101925.80
2023-05-05T04:45:55.953Z,101928.40
2023-05-05T04:48:23.940Z,101935.80
2023-05-05T04:50:51.955Z,101944.60
2023-05-05T04:53:19.749Z,101949.80
2023-05-05T04:55:47.613Z,101956.80
2023-05-05T04:58:15.439Z,101953.40
2023-05-05T05:00:43.610Z,101960.20
2023-05-05T05:03:11.686Z,101965.20
2023-05-05T05:05:39.564Z,101955.00
2023-05-05T05:08:07.380Z,101963.40
2023-05-05T05:10:36.103Z,101955.40
2023-05-05T05:13:04.046Z,101953.20
2023-05-05T05:15:31.915Z,101957.40
2023-05-05T05:17:59.706Z,101951.40
2023-05-05T05:20:27.541Z,101958.60
2023-05-05T05:22:55.433Z,101970.40
2023-05-05T05:25:24.402Z,101968.80
2023-05-05T05:28:02.187Z,101971.20
2023-05-05T05:30:37.267Z,101973.60
2023-05-05T05:33:05.122Z,101977.60
2023-05-05T05:35:32.996Z,101987.20
2023-05-05T05:38:00.834Z,101993.20
2023-05-05T05:40:28.757Z,101984.80
2023-05-05T05:42:56.515Z,101984.40
2023-05-05T05:45:24.341Z,101985.00
2023-05-05T05:47:52.285Z,101981.60
2023-05-05T05:50:21.351Z,101983.00
2023-05-05T05:52:49.388Z,101997.60
2023-05-05T05:55:17.350Z,102000.80
2023-05-05T05:57:45.090Z,101991.00
2023-05-05T06:00:14.016Z,101989.60
2023-05-05T06:02:42.658Z,101991.20
2023-05-05T06:05:11.158Z,101982.60
2023-05-05T06:07:39.053Z,101983.80
2023-05-05T06:10:22.924Z,101982.80
2023-05-05T06:12:54.407Z,101976.80
2023-05-05T06:15:22.363Z,101986.40
2023-05-05T06:17:50.195Z,101982.80
2023-05-05T06:20:18.713Z,101988.60
2023-05-05T06:22:46.567Z,101993.20
2023-05-05T06:25:14.514Z,101994.00
2023-05-05T06:27:42.401Z,102001.40
2023-05-05T06:30:11.031Z,102004.60
2023-05-05T06:32:38.860Z,102010.80
2023-05-05T06:35:07.900Z,102015.80
2023-05-05T06:37:36.120Z,102015.80
2023-05-05T06:40:04.897Z,102017.60
2023-05-05T06:42:33.238Z,102021.60
2023-05-05T06:45:01.717Z,102023.60
2023-05-05T06:47:29.553Z,102025.20
2023-05-05T06:49:57.368Z,102033.00
2023-05-05T06:52:26.367Z,102018.80
2023-05-05T06:54:54.194Z,102023.60
2023-05-05T06:57:21.944Z,102030.60
2023-05-05T06:59:49.819Z,102021.00
2023-05-05T07:02:17.623Z,102025.80
2023-05-05T07:04:45.517Z,102027.80
2023-05-05T07:07:13.360Z,102028.40
2023-05-05T07:09:41.752Z,102035.80
2023-05-05T07:12:09.547Z,102031.60
2023-05-05T07:14:37.307Z,102029.00
2023-05-05T07:17:05.567Z,102034.00
2023-05-05T07:19:33.627Z,102030.40
2023-05-05T07:22:01.618Z,102018.00
2023-05-05T07:24:29.502Z,102034.00
2023-05-05T07:27:03.361Z,102039.40
2023-05-05T07:29:31.702Z,102036.80
2023-05-05T07:31:59.551Z,102034.00
2023-05-05T07:34:27.874Z,102036.40
2023-05-05T07:36:56.632Z,102036.20
2023-05-05T07:39:24.494Z,102048.20
2023-05-05T07:41:52.454Z,102039.80
2023-05-05T07:44:20.734Z,102044.20
2023-05-05T07:46:48.795Z,102046.60
2023-05-05T07:49:16.797Z,102046.60
2023-05-05T07:51:45.176Z,102054.40
2023-05-05T07:54:13.177Z,102058.60
2023-05-05T07:56:41.060Z,102046.80
2023-05-05T07:59:09.013Z,102062.40
2023-05-05T08:01:37.333Z,102064.60
2023-05-05T08:04:05.766Z,102068.40
2023-05-05T08:06:34.012Z,102088.80
2023-05-05T08:09:02.895Z,102078.00
2023-05-05T08:11:30.707Z,102086.60
2023-05-05T08:13:58.812Z,102089.60
2023-05-05T08:16:26.658Z,102089.80
2023-05-05T08:18:54.515Z,102092.20
2023-05-05T08:21:22.551Z,102096.00
2023-05-05T08:23:50.571Z,102083.60
2023-05-05T08:26:18.375Z,102097.20
2023-05-05T08:28:47.143Z,102082.20
2023-05-05T08:31:16.134Z,102099.40
2023-05-05T08:33:44.019Z,102093.80
2023-05-05T08:36:11.936Z,102083.20
2023-05-05T08:38:39.773Z,102093.00
2023-05-05T08:41:13.218Z,102092.20
2023-05-05T08:43:44.384Z,102102.80
2023-05-05T08:46:14.792Z,102089.60
2023-05-05T08:48:45.140Z,102093.00
2023-05-05T08:51:19.802Z,102092.40
2023-05-05T08:54:20.597Z,102100.60
2023-05-05T08:56:53.274Z,102091.60
2023-05-05T08:59:25.248Z,102110.80
2023-05-05T09:01:55.874Z,102103.80
2023-05-05T09:04:27.068Z,102098.80
2023-05-05T09:07:01.536Z,102095.20
2023-05-05T09:09:34.643Z,102095.80
2023-05-05T09:12:03.087Z,102094.40
2023-05-05T09:17:27.504Z,102101.80
2023-05-05T09:20:04.845Z,102102.00
2023-05-05T09:22:42.096Z,102100.60
2023-05-05T09:25:12.778Z,102097.40
2023-05-05T09:27:45.913Z,102096.60
2023-05-05T09:30:24.556Z,102107.80
2023-05-05T09:32:55.332Z,102102.00
2023-05-05T09:35:23.762Z,102108.80
2023-05-05T09:37:51.638Z,102107.40
2023-05-05T09:40:21.485Z,102110.40
2023-05-05T09:43:02.720Z,102125.00
2023-05-05T09:45:30.780Z,102102.40
2023-05-05T09:48:00.399Z,102126.80
2023-05-05T09:50:31.147Z,102107.60
2023-05-05T09:53:02.127Z,102112.60
2023-05-05T09:55:33.458Z,102105.80
2023-05-05T09:58:19.557Z,102133.00
2023-05-05T10:00:47.839Z,102113.80
2023-05-05T10:03:16.412Z,102109.00
2023-05-05T10:05:59.842Z,102104.20
2023-05-05T10:08:33.886Z,102116.00
2023-05-05T10:11:07.022Z,102111.80
2023-05-05T10:13:38.264Z,102105.60
2023-05-05T10:16:09.777Z,102127.20
2023-05-05T10:18:45.978Z,102105.60
2023-05-05T10:21:19.123Z,102104.00
2023-05-05T10:24:03.003Z,102112.00
2023-05-05T10:26:38.146Z,102113.60
2023-05-05T10:29:15.093Z,102110.40
2023-05-05T10:31:50.162Z,102115.40
2023-05-05T10:34:33.255Z,102118.00
2023-05-05T10:37:01.542Z,102109.20
2023-05-05T10:39:29.554Z,102110.00
2023-05-05T10:42:02.482Z,102121.20
2023-05-05T10:44:34.420Z,102104.60
2023-05-05T10:47:03.021Z,102110.20
2023-05-05T10:49:43.085Z,102111.80
2023-05-05T10:52:32.354Z,102109.20
2023-05-05T10:55:30.487Z,102122.60
2023-05-05T10:57:58.398Z,102110.20
2023-05-05T11:00:38.430Z,102110.00
2023-05-05T11:03:18.492Z,102097.80
2023-05-05T11:06:07.815Z,102107.20
2023-05-05T11:08:45.767Z,102097.20
2023-05-05T11:11:13.806Z,102091.20
2023-05-05T11:13:42.072Z,102084.20
2023-05-05T11:16:47.940Z,102094.40
2023-05-05T11:19:44.519Z,102080.40
2023-05-05T11:22:12.467Z,102079.00
2023-05-05T11:24:40.815Z,102089.80
2023-05-05T11:27:08.866Z,102090.60
2023-05-05T11:30:09.384Z,102092.60
2023-05-05T11:32:37.580Z,102099.20
2023-05-05T11:35:07.272Z,102086.40
2023-05-05T11:37:37.581Z,102089.00
2023-05-05T11:40:24.130Z,102091.40
2023-05-05T11:43:06.002Z,102090.00
2023-05-05T11:45:34.709Z,102091.80
2023-05-05T11:48:28.684Z,102101.40
2023-05-05T11:50:58.150Z,102076.20
2023-05-05T11:53:26.227Z,102086.20
2023-05-05T11:56:10.950Z,102075.60
2023-05-05T11:58:38.851Z,102082.00
2023-05-05T12:01:08.656Z,102087.20
2023-05-05T12:03:38.347Z,102082.80
2023-05-05T12:06:08.382Z,102087.40
2023-05-05T12:08:41.423Z,102085.80
2023-05-05T12:11:11.357Z,102074.60
2023-05-05T12:13:39.244Z,102067.00
2023-05-05T12:16:12.938Z,102071.00
2023-05-05T12:18:41.683Z,102070.40
2023-05-05T12:21:20.617Z,102071.80
2023-05-05T12:23:48.474Z,102084.00
2023-05-05T12:26:32.551Z,102071.00
2023-05-05T12:29:01.224Z,102090.00
2023-05-05T12:31:39.245Z,102068.20
2023-05-05T12:34:10.476Z,102073.20
2023-05-05T12:36:39.713Z,102071.20
2023-05-05T12:39:07.491Z,102075.20
2023-05-05T12:41:35.974Z,102085.20
2023-05-05T12:44:04.500Z,102078.00
2023-05-05T12:46:46.122Z,102073.00
2023-05-05T12:49:14.473Z,102062.60
2023-05-05T12:51:56.818Z,102069.00
2023-05-05T12:54:25.214Z,102073.00
2023-05-05T12:56:53.054Z,102064.00
2023-05-05T12:59:24.230Z,102064.80
2023-05-05T13:01:57.400Z,102060.60
2023-05-05T13:04:28.581Z,102056.40
2023-05-05T13:07:14.997Z,102067.00
2023-05-05T13:09:43.093Z,102070.20
2023-05-05T13:12:13.708Z,102055.60
2023-05-05T13:14:41.977Z,102059.20
2023-05-05T13:17:11.498Z,102053.60
2023-05-05T13:19:46.524Z,102065.60
2023-05-05T13:22:14.605Z,102055.80
2023-05-05T13:24:51.846Z,102058.40
2023-05-05T13:27:21.489Z,102066.60
2023-05-05T13:29:49.303Z,102057.00
2023-05-05T13:32:17.203Z,102051.80
2023-05-05T13:34:45.010Z,102049.60
2023-05-05T13:37:12.848Z,102046.40
2023-05-05T13:39:40.803Z,102052.40
2023-05-05T13:42:08.816Z,102045.20
2023-05-05T13:44:36.822Z,102026.40
2023-05-05T13:47:04.851Z,102025.80
2023-05-05T13:49:32.632Z,102034.80
2023-05-05T13:52:00.548Z,102032.80
2023-05-05T13:54:28.400Z,102023.40
2023-05-05T13:56:56.254Z,102018.00
2023-05-05T13:59:25.980Z,102027.60
2023-05-05T14:01:54.129Z,102024.20
2023-05-05T14:04:21.976Z,102019.20
2023-05-05T14:06:49.829Z,102015.20
2023-05-05T14:09:17.666Z,102010.60
2023-05-05T14:11:45.496Z,102014.60
2023-05-05T14:14:13.362Z,102023.60
2023-05-05T14:16:41.107Z,102020.20
2023-05-05T14:19:09.055Z,102028.60
2023-05-05T14:21:36.830Z,102033.00
2023-05-05T14:24:04.972Z,102028.40
2023-05-05T14:26:32.738Z,102026.40
2023-05-05T14:29:00.640Z,102027.00
2023-05-05T14:31:28.853Z,102020.60
2023-05-05T14:33:56.626Z,102023.80
2023-05-05T14:36:27.219Z,102028.00
2023-05-05T14:38:55.058Z,102022.60
2023-05-05T14:41:23.057Z,102017.00
2023-05-05T14:43:50.810Z,102022.80
2023-05-05T14:46:19.005Z,102024.40
2023-05-05T14:48:47.426Z,102027.80
2023-05-05T14:51:16.036Z,102021.20
2023-05-05T14:53:44.014Z,102016.40
2023-05-05T14:56:14.405Z,102017.80
2023-05-05T14:58:42.234Z,102015.40
2023-05-05T15:01:10.073Z,102015.80
2023-05-05T15:03:38.008Z,101999.60
2023-05-05T15:06:08.599Z,102009.40
2023-05-05T15:08:39.086Z,101995.60
2023-05-05T15:11:07.097Z,102006.80
2023-05-05T15:13:38.657Z,101996.80
2023-05-05T15:16:08.022Z,102006.80
2023-05-05T15:18:37.678Z,101999.40
2023-05-05T15:21:06.373Z,102009.80
2023-05-05T15:23:35.380Z,102016.00
2023-05-05T15:26:04.593Z,102017.00
2023-05-05T15:28:32.663Z,102020.80
2023-05-05T15:31:03.386Z,102017.80
2023-05-05T15:33:31.277Z,102014.80
2023-05-05T15:35:59.578Z,102009.00
2023-05-05T15:38:29.227Z,101999.40
2023-05-05T15:40:57.125Z,101997.40
2023-05-05T15:43:25.580Z,101999.20
2023-05-05T15:45:54.865Z,102006.60
2023-05-05T15:48:23.759Z,101998.60
2023-05-05T15:50:51.746Z,101995.60
2023-05-05T15:53:19.577Z,102005.20
2023-05-05T15:55:47.375Z,101998.80
2023-05-05T15:58:15.189Z,101989.40
2023-05-05T16:00:43.095Z,101995.00
2023-05-05T16:03:11.719Z,101992.40
2023-05-05T16:05:39.795Z,101986.80
2023-05-05T16:08:10.041Z,101983.60
2023-05-05T16:10:38.146Z,101996.80
2023-05-05T16:13:06.332Z,101985.80
2023-05-05T16:15:36.032Z,101993.60
2023-05-05T16:18:05.047Z,101991.40
2023-05-05T16:20:33.844Z,101993.40
2023-05-05T16:23:02.078Z,101993.40
2023-05-05T16:25:29.834Z,102001.80
2023-05-05T16:27:57.843Z,102001.00
2023-05-05T16:30:26.206Z,102001.60
2023-05-05T16:32:54.900Z,101991.60
2023-05-05T16:35:23.881Z,101996.80
2023-05-05T16:37:52.962Z,102006.60
2023-05-05T16:40:20.763Z,101994.60
2023-05-05T16:42:49.180Z,101983.20
2023-05-05T16:45:16.986Z,101987.00
2023-05-05T16:47:45.712Z,101989.40
2023-05-05T16:50:13.871Z,101979.80
2023-05-05T16:52:41.643Z,101983.60
2023-05-05T16:55:09.846Z,101984.80
2023-05-05T16:57:38.151Z,101992.80
2023-05-05T17:00:08.696Z,101989.80
2023-05-05T17:02:36.981Z,101997.40
2023-05-05T17:05:06.005Z,101996.60
2023-05-05T17:07:34.565Z,101999.80
2023-05-05T17:10:02.594Z,101999.00
2023-05-05T17:12:30.583Z,101998.40
2023-05-05T17:14:58.390Z,102003.80
2023-05-05T17:17:26.383Z,102004.60
2023-05-05T17:19:54.337Z,101998.80
2023-05-05T17:22:22.254Z,101998.20
2023-05-05T17:24:50.945Z,101999.40
2023-05-05T17:27:18.875Z,101994.80
2023-05-05T17:29:46.765Z,101997.20
2023-05-05T17:32:15.098Z,101993.40
2023-05-05T17:34:43.018Z,101996.60
2023-05-05T17:37:11.211Z,101990.80
2023-05-05T17:39:39.025Z,101989.20
2023-05-05T17:42:06.787Z,101984.40
2023-05-05T17:44:34.638Z,101995.40
2023-05-05T17:47:04.051Z,101998.80
2023-05-05T17:49:31.904Z,101991.20
2023-05-05T17:51:59.820Z,101996.60
2023-05-05T17:54:37.569Z,101996.80
2023-05-05T17:57:05.448Z,101999.20
2023-05-05T17:59:33.330Z,101999.00
2023-05-05T18:02:01.340Z,101996.00
2023-05-05T18:04:29.250Z,102003.20
2023-05-05T18:06:57.583Z,102004.80
2023-05-05T18:09:26.857Z,102000.80
2023-05-05T18:11:54.959Z,102009.00
2023-05-05T18:14:23.951Z,102002.60
2023-05-05T18:16:52.516Z,102008.80
2023-05-05T18:19:23.474Z,102010.00
2023-05-05T18:21:53.228Z,102003.60
2023-05-05T18:24:21.355Z,102019.80
2023-05-05T18:26:51.982Z,102012.80
2023-05-05T18:29:22.007Z,102010.40
2023-05-05T18:31:53.221Z,102015.20
2023-05-05T18:34:21.497Z,102009.60
2023-05-05T18:36:53.614Z,102014.60
2023-05-05T18:39:21.616Z,102017.00
2023-05-05T18:41:49.768Z,102006.40
2023-05-05T18:44:19.781Z,102017.60
2023-05-05T18:46:48.267Z,102012.80
2023-05-05T18:49:16.458Z,102016.20
2023-05-05T18:51:44.313Z,102010.80
2023-05-05T18:54:12.257Z,102014.00
2023-05-05T18:56:40.146Z,102006.00
2023-05-05T18:59:08.067Z,102012.60
2023-05-05T19:01:35.900Z,102008.60
2023-05-05T19:04:06.924Z,102015.20
2023-05-05T19:06:39.176Z,102012.60
2023-05-05T19:09:07.061Z,102009.80
2023-05-05T19:11:34.875Z,102014.80
2023-05-05T19:14:02.712Z,102004.20
2023-05-05T19:16:30.894Z,102007.00
2023-05-05T19:19:00.953Z,101995.20
2023-05-05T19:21:28.821Z,101997.40
2023-05-05T19:23:59.297Z,101993.00
2023-05-05T19:26:27.417Z,101998.00
2023-05-05T19:28:55.262Z,101992.40
2023-05-05T19:31:27.874Z,102001.20
2023-05-05T19:34:01.615Z,101999.40
2023-05-05T19:36:32.320Z,102001.60
2023-05-05T19:39:04.537Z,101996.20
2023-05-05T19:41:35.704Z,101997.40
2023-05-05T19:44:04.106Z,102001.60
2023-05-05T19:46:32.075Z,101999.20
2023-05-05T19:48:59.983Z,101997.80
2023-05-05T19:51:28.065Z,102001.20
2023-05-05T19:53:55.994Z,102000.80
2023-05-05T19:56:24.174Z,102000.40
2023-05-05T19:58:53.095Z,102000.60
2023-05-05T20:01:21.033Z,102002.60
2023-05-05T20:03:49.047Z,102002.60
2023-05-05T20:06:17.220Z,102003.60
2023-05-05T20:08:45.077Z,102002.20
2023-05-05T20:11:16.277Z,102007.00
2023-05-05T20:13:44.318Z,102003.00
2023-05-05T20:16:12.555Z,102001.40
2023-05-05T20:18:40.653Z,102005.80
2023-05-05T20:21:08.567Z,102005.60
2023-05-05T20:23:37.321Z,102001.00
2023-05-05T20:26:05.206Z,102004.20
2023-05-05T20:28:33.191Z,102004.20
2023-05-05T20:31:01.152Z,102001.80
2023-05-05T20:33:29.385Z,102003.80
2023-05-05T20:35:57.473Z,101997.60
2023-05-05T20:38:25.309Z,102001.60
2023-05-05T20:40:53.246Z,102001.00
2023-05-05T20:43:21.301Z,101999.80
2023-05-05T20:45:49.144Z,101997.80
2023-05-05T20:48:16.971Z,101992.00
2023-05-05T20:50:44.765Z,101997.40
2023-05-05T20:53:16.188Z,101989.80
2023-05-05T20:55:43.957Z,101981.20
2023-05-05T20:58:11.889Z,101981.20
2023-05-05T21:00:39.864Z,101976.20
2023-05-05T21:03:07.911Z,101981.40
2023-05-05T21:05:37.353Z,101976.60
2023-05-05T21:08:05.824Z,101972.20
2023-05-05T21:10:34.020Z,101978.40
2023-05-05T21:13:03.244Z,101982.20
2023-05-05T21:15:32.092Z,101986.00
2023-05-05T21:17:59.869Z,101980.00
2023-05-05T21:20:27.725Z,101973.80
2023-05-05T21:22:56.812Z,101970.40
2023-05-05T21:25:25.250Z,101968.80
2023-05-05T21:27:53.267Z,101970.00
2023-05-05T21:30:23.705Z,101969.80
2023-05-05T21:32:52.428Z,101974.20
2023-05-05T21:35:20.288Z,101977.80
2023-05-05T21:37:49.024Z,101975.40
2023-05-05T21:40:16.940Z,101971.80
2023-05-05T21:42:44.814Z,101973.60
2023-05-05T21:45:12.699Z,101972.20
2023-05-05T21:47:40.514Z,101968.60
2023-05-05T21:50:10.274Z,101961.40
2023-05-05T21:52:38.465Z,101964.40
2023-05-05T21:55:07.007Z,101956.00
2023-05-05T21:57:34.883Z,101951.60
2023-05-05T22:00:05.817Z,101944.80
2023-05-05T22:02:33.986Z,101949.00
2023-05-05T22:05:01.837Z,101941.60
2023-05-05T22:07:31.065Z,101944.80
2023-05-05T22:10:00.083Z,101949.40
2023-05-05T22:12:27.846Z,101954.80
2023-05-05T22:14:55.658Z,101946.40
2023-05-05T22:17:23.557Z,101942.40
2023-05-05T22:19:51.304Z,101949.20
2023-05-05T22:22:19.030Z,101947.80
2023-05-05T22:24:46.827Z,101953.60
2023-05-05T22:27:14.611Z,101949.80
2023-05-05T22:29:42.786Z,101951.40
2023-05-05T22:32:10.531Z,101953.20
2023-05-05T22:34:38.337Z,101952.00
2023-05-05T22:37:06.228Z,101948.80
2023-05-05T22:39:34.135Z,101954.20
2023-05-05T22:42:02.041Z,101944.00
2023-05-05T22:44:29.932Z,101938.40
2023-05-05T22:46:57.722Z,101944.20
2023-05-05T22:49:25.611Z,101936.00
2023-05-05T22:51:53.867Z,101938.80
2023-05-05T22:54:21.645Z,101931.20
2023-05-05T22:56:49.806Z,101933.60
2023-05-05T22:59:17.565Z,101935.80
2023-05-05T23:01:45.315Z,101929.60
2023-05-05T23:04:13.238Z,101918.60
2023-05-05T23:06:42.016Z,101915.60
2023-05-05T23:09:09.797Z,101916.00
2023-05-05T23:11:37.626Z,101918.20
2023-05-05T23:14:05.450Z,101918.80
2023-05-05T23:16:33.278Z,101915.00
2023-05-05T23:19:01.136Z,101911.00
2023-05-05T23:21:29.370Z,101907.80
2023-05-05T23:23:59.932Z,101903.20
2023-05-05T23:26:27.692Z,101907.80
2023-05-05T23:28:55.462Z,101903.20
2023-05-05T23:31:23.447Z,101900.40
2023-05-05T23:33:51.359Z,101900.00
2023-05-05T23:36:19.172Z,101904.00
2023-05-05T23:38:46.881Z,101898.00
2023-05-05T23:41:14.703Z,101896.40
2023-05-05T23:43:42.457Z,101884.60
2023-05-05T23:46:10.222Z,101889.80
2023-05-05T23:48:38.037Z,101881.00
2023-05-05T23:51:05.877Z,101884.00
2023-05-05T23:53:33.838Z,101882.60
2023-05-05T23:56:01.692Z,101885.40
2023-05-05T23:58:29.463Z,101884.80
